createdAt,value
2018-05-10T00:00:19.959Z,99.10
2018-05-10T00:03:17.507Z,98.80
2018-05-10T00:06:14.672Z,99.10
2018-05-10T00:09:11.939Z,99.30
2018-05-10T00:12:09.863Z,99.50
2018-05-10T00:15:08.787Z,99.50
2018-05-10T00:18:05.861Z,99.60
2018-05-10T00:21:03.790Z,99.70
2018-05-10T00:24:01.861Z,99.90
2018-05-10T00:26:59.118Z,99.90
2018-05-10T00:29:56.628Z,99.90
2018-05-10T00:32:54.797Z,99.90
2018-05-10T00:35:53.217Z,99.90
2018-05-10T00:38:51.881Z,99.90
2018-05-10T00:41:49.477Z,99.90
2018-05-10T00:44:47.492Z,99.90
2018-05-10T00:47:46.386Z,99.90
2018-05-10T00:50:43.565Z,99.90
2018-05-10T00:53:41.446Z,99.90
2018-05-10T00:56:38.800Z,99.90
2018-05-10T00:59:35.923Z,99.90
2018-05-10T01:02:33.880Z,99.90
2018-05-10T01:05:31.791Z,99.90
2018-05-10T01:08:28.936Z,99.90
2018-05-10T01:11:28.138Z,99.90
2018-05-10T01:14:26.369Z,99.90
2018-05-10T01:17:23.459Z,99.90
2018-05-10T01:20:20.627Z,99.90
2018-05-10T01:23:18.929Z,99.90
2018-05-10T01:26:16.002Z,99.90
2018-05-10T01:29:13.705Z,99.90
2018-05-10T01:32:11.849Z,99.90
2018-05-10T01:35:21.186Z,99.90
2018-05-10T01:38:18.311Z,99.90
2018-05-10T01:41:15.625Z,99.90
2018-05-10T01:44:12.850Z,99.90
2018-05-10T01:47:09.976Z,99.90
2018-05-10T01:50:07.045Z,99.90
2018-05-10T01:53:04.697Z,99.90
2018-05-10T01:56:02.432Z,99.90
2018-05-10T01:59:00.582Z,99.90
2018-05-10T02:01:57.814Z,99.90
2018-05-10T02:04:56.076Z,99.90
2018-05-10T02:07:54.029Z,99.90
2018-05-10T02:10:51.363Z,99.90
2018-05-10T02:13:48.403Z,99.90
2018-05-10T02:16:45.858Z,99.90
2018-05-10T02:19:42.943Z,99.90
2018-05-10T02:22:40.729Z,99.90
2018-05-10T02:25:37.781Z,99.90
2018-05-10T02:28:36.442Z,99.90
2018-05-10T02:31:33.603Z,99.90
2018-05-10T02:34:30.760Z,99.90
2018-05-10T02:37:27.955Z,99.90
2018-05-10T02:40:25.215Z,99.90
2018-05-10T02:43:22.560Z,99.90
2018-05-10T02:46:19.660Z,99.90
2018-05-10T02:49:17.412Z,99.90
2018-05-10T02:52:15.454Z,99.90
2018-05-10T02:55:14.096Z,99.90
2018-05-10T02:58:11.120Z,99.90
2018-05-10T03:01:08.263Z,99.90
2018-05-10T03:04:05.505Z,99.90
2018-05-10T03:07:02.734Z,99.90
2018-05-10T03:10:00.653Z,99.90
2018-05-10T03:12:59.728Z,99.90
2018-05-10T03:15:56.840Z,99.90
2018-05-10T03:18:54.851Z,99.90
2018-05-10T03:21:52.007Z,99.90
2018-05-10T03:24:49.202Z,99.90
2018-05-10T03:27:46.302Z,99.80
2018-05-10T03:30:44.452Z,99.60
2018-05-10T03:33:42.458Z,99.60
2018-05-10T03:36:40.633Z,99.40
2018-05-10T03:39:38.594Z,98.70
2018-05-10T03:42:35.985Z,98.70
2018-05-10T03:45:34.402Z,98.50
2018-05-10T03:48:32.487Z,98.50
2018-05-10T03:51:29.857Z,98.20
2018-05-10T03:54:27.837Z,98.20
2018-05-10T03:57:25.207Z,98.10
2018-05-10T04:00:23.309Z,98.00
2018-05-10T04:07:21.422Z,97.80
2018-05-10T04:10:30.541Z,97.90
2018-05-10T04:13:27.999Z,97.80
2018-05-10T04:16:25.945Z,97.80
2018-05-10T04:19:23.977Z,97.70
2018-05-10T04:22:21.823Z,97.40
2018-05-10T04:25:18.881Z,97.30
2018-05-10T04:28:16.733Z,97.30
2018-05-10T04:31:14.701Z,97.30
2018-05-10T04:34:11.899Z,96.90
2018-05-10T04:37:09.035Z,96.60
2018-05-10T04:40:06.191Z,96.00
2018-05-10T04:43:04.180Z,96.20
2018-05-10T04:46:01.159Z,96.30
2018-05-10T04:48:59.271Z,96.30
2018-05-10T04:51:56.629Z,96.10
2018-05-10T04:54:53.790Z,96.00
2018-05-10T04:57:50.865Z,96.00
2018-05-10T05:00:48.232Z,95.80
2018-05-10T05:03:46.541Z,95.90
2018-05-10T05:06:44.506Z,96.00
2018-05-10T05:09:42.380Z,95.70
2018-05-10T05:12:39.589Z,95.40
2018-05-10T05:15:37.689Z,95.40
2018-05-10T05:18:35.684Z,95.40
2018-05-10T05:21:32.899Z,95.00
2018-05-10T05:24:30.853Z,94.80
2018-05-10T05:27:28.869Z,94.90
2018-05-10T05:30:28.301Z,94.50
2018-05-10T05:33:25.706Z,94.50
2018-05-10T05:36:23.623Z,94.30
2018-05-10T05:39:20.720Z,94.20
2018-05-10T05:42:18.802Z,93.80
2018-05-10T05:45:15.923Z,93.90
2018-05-10T05:48:13.779Z,93.70
2018-05-10T05:51:11.858Z,93.60
2018-05-10T05:54:09.606Z,93.00
2018-05-10T05:57:06.966Z,92.70
2018-05-10T06:00:04.880Z,92.40
2018-05-10T06:03:03.029Z,92.00
2018-05-10T06:06:00.915Z,92.00
2018-05-10T06:08:58.983Z,92.20
2018-05-10T06:11:56.074Z,91.20
2018-05-10T06:14:54.064Z,90.80
2018-05-10T06:17:51.040Z,90.80
2018-05-10T06:20:49.027Z,90.70
2018-05-10T06:23:46.069Z,90.70
2018-05-10T06:26:43.966Z,90.50
2018-05-10T06:29:41.165Z,90.10
2018-05-10T06:32:39.104Z,89.60
2018-05-10T06:35:37.227Z,86.80
2018-05-10T06:38:34.992Z,86.80
2018-05-10T06:41:33.118Z,83.10
2018-05-10T06:44:31.196Z,76.40
2018-05-10T06:47:29.039Z,68.50
2018-05-10T06:50:26.965Z,62.60
2018-05-10T06:53:24.871Z,62.50
2018-05-10T06:56:22.132Z,59.10
2018-05-10T06:59:19.988Z,58.10
2018-05-10T07:02:17.152Z,59.00
2018-05-10T07:05:15.175Z,58.50
2018-05-10T07:08:13.103Z,59.30
2018-05-10T07:11:10.398Z,58.80
2018-05-10T07:14:08.064Z,57.90
2018-05-10T07:17:05.880Z,56.10
2018-05-10T07:20:04.082Z,56.10
2018-05-10T07:23:01.752Z,54.60
2018-05-10T07:25:59.548Z,52.70
2018-05-10T07:28:57.966Z,52.10
2018-05-10T07:31:55.336Z,52.10
2018-05-10T07:34:52.390Z,49.80
2018-05-10T07:37:50.987Z,49.20
2018-05-10T07:40:48.074Z,49.10
2018-05-10T07:43:45.221Z,47.90
2018-05-10T07:46:43.253Z,50.20
2018-05-10T07:49:41.245Z,50.00
2018-05-10T07:52:39.071Z,51.00
2018-05-10T07:55:37.442Z,51.00
2018-05-10T07:58:35.217Z,51.00
2018-05-10T08:01:33.169Z,48.10
2018-05-10T08:04:31.367Z,47.00
2018-05-10T08:07:29.445Z,46.00
2018-05-10T08:10:41.499Z,46.10
2018-05-10T08:13:39.507Z,43.50
2018-05-10T08:16:37.178Z,43.40
2018-05-10T08:19:36.165Z,43.70
2018-05-10T08:22:33.364Z,43.00
2018-05-10T08:25:32.104Z,43.90
2018-05-10T08:28:29.998Z,45.00
2018-05-10T08:31:27.899Z,45.20
2018-05-10T08:34:25.066Z,45.10
2018-05-10T08:37:23.076Z,44.70
2018-05-10T08:40:20.972Z,45.70
2018-05-10T08:43:17.984Z,45.70
2018-05-10T08:46:15.971Z,46.20
2018-05-10T08:49:13.726Z,46.60
2018-05-10T08:52:11.488Z,44.00
2018-05-10T08:55:09.336Z,43.50
2018-05-10T08:58:07.425Z,42.70
2018-05-10T09:01:09.056Z,40.90
2018-05-10T09:04:07.137Z,40.60
2018-05-10T09:07:05.335Z,41.50
2018-05-10T09:10:03.047Z,43.10
2018-05-10T09:13:01.951Z,43.90
2018-05-10T09:16:00.727Z,44.70
2018-05-10T09:18:57.877Z,45.00
2018-05-10T09:21:56.019Z,45.10
2018-05-10T09:24:54.015Z,45.40
2018-05-10T09:27:51.957Z,45.90
2018-05-10T09:30:49.849Z,45.60
2018-05-10T09:33:48.864Z,45.60
2018-05-10T09:36:46.573Z,46.40
2018-05-10T09:39:44.336Z,45.80
2018-05-10T09:42:42.048Z,43.80
2018-05-10T09:45:40.828Z,41.20
2018-05-10T09:48:38.710Z,41.20
2018-05-10T09:51:37.732Z,40.60
2018-05-10T09:54:35.702Z,39.90
2018-05-10T09:57:34.810Z,40.00
2018-05-10T10:00:36.582Z,40.00
2018-05-10T10:03:34.356Z,40.30
2018-05-10T10:06:32.019Z,40.40
2018-05-10T10:09:29.797Z,40.40
2018-05-10T10:12:27.479Z,40.50
2018-05-10T10:15:25.960Z,41.40
2018-05-10T10:18:23.057Z,41.40
2018-05-10T10:21:20.856Z,42.20
2018-05-10T10:24:18.079Z,43.00
2018-05-10T10:27:16.010Z,44.10
2018-05-10T10:30:13.876Z,42.50
2018-05-10T10:33:12.008Z,42.50
2018-05-10T10:36:09.661Z,42.70
2018-05-10T10:39:07.706Z,43.10
2018-05-10T10:42:05.693Z,42.90
2018-05-10T10:45:03.476Z,42.70
2018-05-10T10:48:01.348Z,42.50
2018-05-10T10:50:59.446Z,41.40
2018-05-10T10:53:56.616Z,42.00
2018-05-10T10:56:54.680Z,41.30
2018-05-10T10:59:52.516Z,42.90
2018-05-10T11:02:50.353Z,43.30
2018-05-10T11:05:48.192Z,43.10
2018-05-10T11:08:46.121Z,44.30
2018-05-10T11:11:43.754Z,43.60
2018-05-10T11:14:41.620Z,42.70
2018-05-10T11:17:39.337Z,42.70
2018-05-10T11:20:37.106Z,43.00
2018-05-10T11:23:35.117Z,44.60
2018-05-10T11:26:32.752Z,45.60
2018-05-10T11:29:30.717Z,44.70
2018-05-10T11:32:28.495Z,44.70
2018-05-10T11:35:25.593Z,44.60
2018-05-10T11:38:24.551Z,43.90
2018-05-10T11:41:22.630Z,43.90
2018-05-10T11:44:20.674Z,45.40
2018-05-10T11:47:19.477Z,45.80
2018-05-10T11:50:17.481Z,45.70
2018-05-10T11:53:15.468Z,46.30
2018-05-10T11:56:13.470Z,46.20
2018-05-10T11:59:11.422Z,47.50
2018-05-10T12:02:09.329Z,48.20
2018-05-10T12:05:07.224Z,47.20
2018-05-10T12:08:05.054Z,47.00
2018-05-10T12:11:03.023Z,47.60
2018-05-10T12:14:01.106Z,48.20
2018-05-10T12:16:58.168Z,48.20
2018-05-10T12:19:56.908Z,48.80
2018-05-10T12:22:54.822Z,48.70
2018-05-10T12:25:52.775Z,48.90
2018-05-10T12:28:50.438Z,48.90
2018-05-10T12:31:48.186Z,49.50
2018-05-10T12:34:45.967Z,50.10
2018-05-10T12:37:43.842Z,50.70
2018-05-10T12:40:42.082Z,50.60
2018-05-10T12:43:39.598Z,51.20
2018-05-10T12:46:37.393Z,51.30
2018-05-10T12:49:34.464Z,52.10
2018-05-10T12:52:32.254Z,51.70
2018-05-10T12:55:29.902Z,51.40
2018-05-10T12:58:27.660Z,51.50
2018-05-10T13:01:25.492Z,50.60
2018-05-10T13:04:23.202Z,50.80
2018-05-10T13:07:21.185Z,51.30
2018-05-10T13:10:21.849Z,50.80
2018-05-10T13:13:19.904Z,51.20
2018-05-10T13:16:17.849Z,51.10
2018-05-10T13:19:15.633Z,52.00
2018-05-10T13:22:13.236Z,52.40
2018-05-10T13:25:11.441Z,52.80
2018-05-10T13:28:09.811Z,53.00
2018-05-10T13:31:08.270Z,53.40
2018-05-10T13:34:06.434Z,53.40
2018-05-10T13:37:04.961Z,54.60
2018-05-10T13:40:02.143Z,54.60
2018-05-10T13:42:59.244Z,55.20
2018-05-10T13:45:56.358Z,54.70
2018-05-10T13:48:53.505Z,53.60
2018-05-10T13:51:51.189Z,54.70
2018-05-10T13:54:49.042Z,54.70
2018-05-10T13:57:46.903Z,56.20
2018-05-10T14:00:45.826Z,56.70
2018-05-10T14:03:43.621Z,56.70
2018-05-10T14:06:41.409Z,56.40
2018-05-10T14:09:39.170Z,56.30
2018-05-10T14:12:36.475Z,56.30
2018-05-10T14:15:34.439Z,56.80
2018-05-10T14:18:32.423Z,57.20
2018-05-10T14:21:30.197Z,57.20
2018-05-10T14:24:28.198Z,57.60
2018-05-10T14:27:26.195Z,57.60
2018-05-10T14:30:24.136Z,58.30
2018-05-10T14:33:21.174Z,58.30
2018-05-10T14:36:18.917Z,58.70
2018-05-10T14:39:16.776Z,57.90
2018-05-10T14:42:15.610Z,58.30
2018-05-10T14:45:12.826Z,58.30
2018-05-10T14:48:10.867Z,58.00
2018-05-10T14:51:09.075Z,58.40
2018-05-10T14:54:06.394Z,58.40
2018-05-10T14:57:04.338Z,58.30
2018-05-10T15:00:01.680Z,58.80
2018-05-10T15:02:59.423Z,58.50
2018-05-10T15:05:56.787Z,58.40
2018-05-10T15:08:53.836Z,59.60
2018-05-10T15:11:52.889Z,59.00
2018-05-10T15:14:50.627Z,59.20
2018-05-10T15:17:48.748Z,60.10
2018-05-10T15:20:46.780Z,61.20
2018-05-10T15:23:45.087Z,61.40
2018-05-10T15:26:42.797Z,61.60
2018-05-10T15:29:41.706Z,61.80
2018-05-10T15:32:39.663Z,62.00
2018-05-10T15:35:37.791Z,62.00
2018-05-10T15:38:35.568Z,62.50
2018-05-10T15:41:34.534Z,63.20
2018-05-10T15:44:31.823Z,63.70
2018-05-10T15:47:29.776Z,65.20
2018-05-10T15:50:27.713Z,65.20
2018-05-10T15:53:25.661Z,65.50
2018-05-10T15:56:23.655Z,65.60
2018-05-10T15:59:21.459Z,66.20
2018-05-10T16:02:20.231Z,67.00
2018-05-10T16:05:18.205Z,67.50
2018-05-10T16:08:16.966Z,68.30
2018-05-10T16:11:14.867Z,68.40
2018-05-10T16:14:14.074Z,69.30
2018-05-10T16:17:11.985Z,69.20
2018-05-10T16:20:09.827Z,70.00
2018-05-10T16:23:07.756Z,70.50
2018-05-10T16:26:05.596Z,70.40
2018-05-10T16:29:03.416Z,70.40
2018-05-10T16:32:01.443Z,71.80
2018-05-10T16:34:59.375Z,72.70
2018-05-10T16:37:57.245Z,72.70
2018-05-10T16:40:55.061Z,73.40
2018-05-10T16:43:54.080Z,73.80
2018-05-10T16:46:52.134Z,74.60
2018-05-10T16:49:49.880Z,74.60
2018-05-10T16:52:47.825Z,75.50
2018-05-10T16:55:46.560Z,77.10
2018-05-10T16:58:44.480Z,77.90
2018-05-10T17:01:42.481Z,78.10
2018-05-10T17:04:39.667Z,78.10
2018-05-10T17:07:39.451Z,78.60
2018-05-10T17:10:37.330Z,79.60
2018-05-10T17:13:35.224Z,79.90
2018-05-10T17:16:33.065Z,79.80
2018-05-10T17:19:30.843Z,80.80
2018-05-10T17:22:28.148Z,81.30
2018-05-10T17:25:26.841Z,82.40
2018-05-10T17:28:24.897Z,82.60
2018-05-10T17:31:22.890Z,83.00
2018-05-10T17:34:20.856Z,83.30
2018-05-10T17:37:18.596Z,84.10
2018-05-10T17:40:15.707Z,84.50
2018-05-10T17:43:14.255Z,85.00
2018-05-10T17:46:11.620Z,85.20
2018-05-10T17:49:09.539Z,86.20
2018-05-10T17:52:07.328Z,86.90
2018-05-10T17:55:05.663Z,87.40
2018-05-10T17:58:03.060Z,87.90
2018-05-10T18:01:00.752Z,88.30
2018-05-10T18:03:58.621Z,88.50
2018-05-10T18:06:55.742Z,88.60
2018-05-10T18:09:53.676Z,88.90
2018-05-10T18:12:50.797Z,89.10
2018-05-10T18:15:48.820Z,89.50
2018-05-10T18:18:46.882Z,90.10
2018-05-10T18:21:44.787Z,90.10
2018-05-10T18:24:42.768Z,90.20
2018-05-10T18:27:39.802Z,90.40
2018-05-10T18:30:37.785Z,90.70
2018-05-10T18:33:35.779Z,90.70
2018-05-10T18:36:33.732Z,91.10
2018-05-10T18:39:31.641Z,91.00
2018-05-10T18:42:29.375Z,91.10
2018-05-10T18:45:28.727Z,91.40
2018-05-10T18:48:26.942Z,91.40
2018-05-10T18:51:25.680Z,91.70
2018-05-10T18:54:23.819Z,92.10
2018-05-10T18:57:22.587Z,92.30
2018-05-10T19:00:21.556Z,92.40
2018-05-10T19:03:19.691Z,92.40
2018-05-10T19:06:17.574Z,92.60
2018-05-10T19:09:15.546Z,92.60
2018-05-10T19:12:12.596Z,92.70
2018-05-10T19:15:10.699Z,92.80
2018-05-10T19:18:08.514Z,92.90
2018-05-10T19:21:06.907Z,92.90
2018-05-10T19:24:04.820Z,92.90
2018-05-10T19:27:02.129Z,93.00
2018-05-10T19:29:59.963Z,93.20
2018-05-10T19:32:58.749Z,93.20
2018-05-10T19:35:55.835Z,93.80
2018-05-10T19:38:52.946Z,93.50
2018-05-10T19:41:51.472Z,93.50
2018-05-10T19:44:49.783Z,93.50
2018-05-10T19:47:47.755Z,93.50
2018-05-10T19:50:45.137Z,93.60
2018-05-10T19:53:42.894Z,93.60
2018-05-10T19:56:40.011Z,93.60
2018-05-10T19:59:37.918Z,93.80
2018-05-10T20:02:35.698Z,93.70
2018-05-10T20:05:32.792Z,93.80
2018-05-10T20:08:30.805Z,93.90
2018-05-10T20:11:28.526Z,93.90
2018-05-10T20:14:26.351Z,94.10
2018-05-10T20:17:24.651Z,94.10
2018-05-10T20:20:22.497Z,94.10
2018-05-10T20:23:20.372Z,94.00
2018-05-10T20:26:18.388Z,94.00
2018-05-10T20:29:16.346Z,94.10
2018-05-10T20:32:14.039Z,94.10
2018-05-10T20:35:11.552Z,94.20
2018-05-10T20:38:08.598Z,94.10
2018-05-10T20:41:06.632Z,94.20
2018-05-10T20:44:03.723Z,94.10
2018-05-10T20:47:01.536Z,94.10
2018-05-10T20:49:58.490Z,94.10
2018-05-10T20:52:56.553Z,94.10
2018-05-10T20:55:54.598Z,94.20
2018-05-10T20:58:52.404Z,94.20
2018-05-10T21:01:49.574Z,94.20
2018-05-10T21:04:47.697Z,94.20
2018-05-10T21:07:45.289Z,94.10
2018-05-10T21:10:43.370Z,94.10
2018-05-10T21:13:40.476Z,94.10
2018-05-10T21:16:38.435Z,94.10
2018-05-10T21:19:36.266Z,94.10
2018-05-10T21:22:35.062Z,94.10
2018-05-10T21:25:33.148Z,94.00
2018-05-10T21:28:31.054Z,93.90
2018-05-10T21:31:28.999Z,94.10
2018-05-10T21:34:26.002Z,94.10
2018-05-10T21:37:24.224Z,94.10
2018-05-10T21:40:21.597Z,94.10
2018-05-10T21:43:18.902Z,94.00
2018-05-10T21:46:16.711Z,94.00
2018-05-10T21:49:13.750Z,94.10
2018-05-10T21:52:10.963Z,93.80
2018-05-10T21:55:08.817Z,93.90
2018-05-10T21:58:06.870Z,94.00
2018-05-10T22:01:04.016Z,94.00
2018-05-10T22:04:01.853Z,94.10
2018-05-10T22:06:58.952Z,94.00
2018-05-10T22:09:56.879Z,94.10
2018-05-10T22:12:53.944Z,94.20
2018-05-10T22:15:52.052Z,94.10
2018-05-10T22:18:50.863Z,94.10
2018-05-10T22:21:48.908Z,94.10
2018-05-10T22:24:46.872Z,94.00
2018-05-10T22:27:44.678Z,94.10
2018-05-10T22:30:43.508Z,94.10
2018-05-10T22:33:41.539Z,94.10
2018-05-10T22:36:39.317Z,94.00
2018-05-10T22:39:37.072Z,94.40
2018-05-10T22:42:35.147Z,94.60
2018-05-10T22:45:32.184Z,94.60
2018-05-10T22:48:30.120Z,94.70
2018-05-10T22:51:27.162Z,94.70
2018-05-10T22:54:25.889Z,94.80
2018-05-10T22:57:23.829Z,94.80
2018-05-10T23:00:20.847Z,94.70
2018-05-10T23:03:18.789Z,95.00
2018-05-10T23:06:16.822Z,95.00
2018-05-10T23:09:14.541Z,95.10
2018-05-10T23:12:12.480Z,95.40
2018-05-10T23:15:10.342Z,95.40
2018-05-10T23:18:08.232Z,95.40
2018-05-10T23:21:05.963Z,95.40
2018-05-10T23:24:03.896Z,95.40
2018-05-10T23:27:01.213Z,95.30
2018-05-10T23:29:58.249Z,95.40
2018-05-10T23:32:56.211Z,95.60
2018-05-10T23:35:53.314Z,95.70
2018-05-10T23:38:50.988Z,95.80
2018-05-10T23:41:48.890Z,95.80
2018-05-10T23:44:46.812Z,96.10
2018-05-10T23:47:44.594Z,96.30
2018-05-10T23:50:42.552Z,96.20
2018-05-10T23:53:40.555Z,96.10
2018-05-10T23:56:38.193Z,96.40
2018-05-10T23:59:36.120Z,96.50
